createdAt,value
2024-05-09T00:00:40.700Z,101822.84
2024-05-09T00:03:11.936Z,101822.88
2024-05-09T00:05:43.194Z,101822.28
2024-05-09T00:08:11.405Z,101828.47
2024-05-09T00:10:41.703Z,101823.03
2024-05-09T00:13:09.251Z,101823.09
2024-05-09T00:15:36.659Z,101813.69
2024-05-09T00:18:05.225Z,101810.91
2024-05-09T00:20:38.035Z,101805.78
2024-05-09T00:23:08.888Z,101805.75
2024-05-09T00:25:36.125Z,101810.31
2024-05-09T00:28:03.276Z,101814.59
2024-05-09T00:30:35.054Z,101807.75
2024-05-09T00:33:08.516Z,101809.13
2024-05-09T00:35:40.073Z,101805.63
2024-05-09T00:38:07.251Z,101816.56
2024-05-09T00:40:39.702Z,101820.03
2024-05-09T00:43:09.966Z,101816.53
2024-05-09T00:45:36.986Z,101814.66
2024-05-09T00:48:09.522Z,101816.66
2024-05-09T00:50:40.366Z,101810.59
2024-05-09T00:53:08.298Z,101815.19
2024-05-09T00:55:39.056Z,101812.53
2024-05-09T00:58:07.188Z,101813.28
2024-05-09T01:03:15.332Z,101811.78
2024-05-09T01:05:45.184Z,101810.13
2024-05-09T01:08:12.832Z,101804.03
2024-05-09T01:10:42.853Z,101809.94
2024-05-09T01:13:11.865Z,101799.63
2024-05-09T01:16:22.816Z,101809.72
2024-05-09T01:18:49.896Z,101804.44
2024-05-09T01:21:16.796Z,101808.00
2024-05-09T01:23:43.703Z,101807.34
2024-05-09T01:26:10.619Z,101806.50
2024-05-09T01:28:37.421Z,101804.75
2024-05-09T01:31:06.756Z,101806.63
2024-05-09T01:33:33.795Z,101810.31
2024-05-09T01:36:00.626Z,101806.84
2024-05-09T01:38:27.441Z,101811.97
2024-05-09T01:40:54.655Z,101806.63
2024-05-09T01:43:21.466Z,101805.84
2024-05-09T01:45:48.233Z,101809.50
2024-05-09T01:48:15.311Z,101813.88
2024-05-09T01:50:43.255Z,101808.63
2024-05-09T01:53:16.024Z,101807.88
2024-05-09T01:55:43.154Z,101815.00
2024-05-09T01:58:11.935Z,101807.09
2024-05-09T02:00:43.446Z,101813.97
2024-05-09T02:03:15.225Z,101811.31
2024-05-09T02:05:50.600Z,101814.00
2024-05-09T02:08:19.273Z,101805.09
2024-05-09T02:10:47.613Z,101796.38
2024-05-09T02:13:15.090Z,101806.97
2024-05-09T02:15:41.898Z,101800.72
2024-05-09T02:18:10.396Z,101801.56
2024-05-09T02:20:41.482Z,101812.09
2024-05-09T02:26:42.973Z,101813.13
2024-05-09T02:29:09.799Z,101806.88
2024-05-09T02:31:36.704Z,101808.94
2024-05-09T02:34:06.268Z,101812.38
2024-05-09T02:36:35.359Z,101802.59
2024-05-09T02:39:04.350Z,101807.19
2024-05-09T02:41:31.284Z,101800.19
2024-05-09T02:43:58.107Z,101807.25
2024-05-09T02:46:24.912Z,101805.38
2024-05-09T02:48:51.742Z,101805.38
2024-05-09T02:51:21.693Z,101794.03
2024-05-09T02:53:48.819Z,101804.53
2024-05-09T02:56:15.870Z,101803.56
2024-05-09T02:58:42.708Z,101803.69
2024-05-09T03:01:09.521Z,101807.31
2024-05-09T03:03:43.117Z,101807.19
2024-05-09T03:06:10.010Z,101805.44
2024-05-09T03:08:36.786Z,101803.81
2024-05-09T03:11:06.047Z,101809.81
2024-05-09T03:13:32.832Z,101808.06
2024-05-09T03:16:00.012Z,101807.28
2024-05-09T03:18:29.053Z,101803.75
2024-05-09T03:20:55.913Z,101815.22
2024-05-09T03:24:06.651Z,101812.56
2024-05-09T03:26:35.702Z,101812.53
2024-05-09T03:29:04.850Z,101816.13
2024-05-09T03:31:31.784Z,101809.09
2024-05-09T03:33:58.626Z,101806.50
2024-05-09T03:36:25.575Z,101803.94
2024-05-09T03:38:52.304Z,101804.81
2024-05-09T03:46:05.627Z,101802.22
2024-05-09T03:48:34.936Z,101805.78
2024-05-09T03:51:01.887Z,101806.59
2024-05-09T03:53:28.734Z,101809.13
2024-05-09T03:55:57.024Z,101803.94
2024-05-09T03:58:23.805Z,101806.56
2024-05-09T04:00:50.619Z,101811.03
2024-05-09T04:03:22.135Z,101800.50
2024-05-09T04:05:51.462Z,101806.50
2024-05-09T04:08:18.314Z,101803.09
2024-05-09T04:10:48.255Z,101809.13
2024-05-09T04:13:15.062Z,101800.38
2024-05-09T04:15:43.300Z,101809.91
2024-05-09T04:18:10.326Z,101805.38
2024-05-09T04:20:39.939Z,101803.66
2024-05-09T04:23:13.709Z,101802.75
2024-05-09T04:25:42.197Z,101813.31
2024-05-09T04:28:08.931Z,101812.44
2024-05-09T04:30:42.489Z,101823.69
2024-05-09T04:33:30.550Z,101821.88
2024-05-09T04:35:57.636Z,101825.56
2024-05-09T04:38:24.554Z,101826.41
2024-05-09T04:40:51.545Z,101826.25
2024-05-09T04:43:19.705Z,101827.94
2024-05-09T04:45:46.605Z,101827.03
2024-05-09T04:48:13.942Z,101820.66
2024-05-09T04:50:41.039Z,101828.25
2024-05-09T04:53:10.390Z,101825.41
2024-05-09T04:55:38.354Z,101825.34
2024-05-09T04:58:30.664Z,101820.19
2024-05-09T05:00:57.562Z,101828.78
2024-05-09T05:03:24.560Z,101817.84
2024-05-09T05:06:16.294Z,101825.50
2024-05-09T05:08:43.747Z,101822.84
2024-05-09T05:11:19.763Z,101821.84
2024-05-09T05:13:46.714Z,101827.78
2024-05-09T05:16:13.441Z,101824.25
2024-05-09T05:18:40.443Z,101822.31
2024-05-09T05:21:07.352Z,101829.25
2024-05-09T05:23:37.322Z,101823.97
2024-05-09T05:26:05.258Z,101819.56
2024-05-09T05:28:34.383Z,101818.81
2024-05-09T05:31:01.242Z,101824.44
2024-05-09T05:33:31.400Z,101827.66
2024-05-09T05:35:58.426Z,101834.50
2024-05-09T05:38:28.085Z,101837.00
2024-05-09T05:40:55.694Z,101835.19
2024-05-09T05:43:22.560Z,101834.31
2024-05-09T05:45:49.398Z,101829.97
2024-05-09T05:48:17.232Z,101827.94
2024-05-09T05:51:09.592Z,101833.22
2024-05-09T05:53:36.694Z,101834.75
2024-05-09T05:56:04.584Z,101838.25
2024-05-09T05:58:31.427Z,101833.56
2024-05-09T06:00:58.246Z,101836.78
2024-05-09T06:03:25.057Z,101834.75
2024-05-09T06:05:54.193Z,101833.19
2024-05-09T06:08:27.107Z,101830.41
2024-05-09T06:10:55.799Z,101834.66
2024-05-09T06:13:22.761Z,101830.38
2024-05-09T06:15:52.364Z,101838.28
2024-05-09T06:18:19.565Z,101827.84
2024-05-09T06:20:46.602Z,101838.44
2024-05-09T06:23:16.411Z,101836.50
2024-05-09T06:25:44.132Z,101834.44
2024-05-09T06:28:11.766Z,101835.94
2024-05-09T06:30:42.233Z,101837.63
2024-05-09T06:33:12.293Z,101835.69
2024-05-09T06:35:41.304Z,101834.53
2024-05-09T06:38:11.597Z,101834.44
2024-05-09T06:40:41.322Z,101831.75
2024-05-09T06:43:13.347Z,101838.34
2024-05-09T06:45:40.409Z,101842.66
2024-05-09T06:48:07.777Z,101840.66
2024-05-09T06:50:37.968Z,101832.50
2024-05-09T06:53:09.347Z,101835.78
2024-05-09T06:55:39.335Z,101830.03
2024-05-09T06:58:06.935Z,101831.88
2024-05-09T07:00:39.099Z,101832.63
2024-05-09T07:03:17.090Z,101836.75
2024-05-09T07:05:46.643Z,101830.41
2024-05-09T07:08:14.385Z,101826.53
2024-05-09T07:10:44.871Z,101827.25
2024-05-09T07:13:12.564Z,101841.53
2024-05-09T07:15:39.677Z,101834.03
2024-05-09T07:18:10.587Z,101839.13
2024-05-09T07:20:38.218Z,101843.19
2024-05-09T07:23:05.268Z,101843.19
2024-05-09T07:25:32.296Z,101835.81
2024-05-09T07:28:01.468Z,101840.28
2024-05-09T07:30:33.309Z,101828.22
2024-05-09T07:33:04.786Z,101828.53
2024-05-09T07:35:31.846Z,101829.38
2024-05-09T07:37:59.080Z,101828.16
2024-05-09T07:40:33.124Z,101831.41
2024-05-09T07:43:13.350Z,101832.78
2024-05-09T07:45:51.104Z,101832.97
2024-05-09T07:53:39.291Z,101830.25
2024-05-09T07:56:09.874Z,101828.19
2024-05-09T07:58:40.383Z,101824.16
2024-05-09T08:01:07.642Z,101815.09
2024-05-09T08:03:34.627Z,101825.41
2024-05-09T08:06:02.531Z,101809.66
2024-05-09T08:08:29.363Z,101801.59
2024-05-09T08:10:56.265Z,101805.03
2024-05-09T08:13:25.817Z,101806.19
2024-05-09T08:16:00.111Z,101802.97
2024-05-09T08:18:27.813Z,101805.47
2024-05-09T08:20:54.657Z,101803.50
2024-05-09T08:23:21.464Z,101796.97
2024-05-09T08:25:49.798Z,101796.59
2024-05-09T08:28:16.734Z,101804.22
2024-05-09T08:30:43.582Z,101796.97
2024-05-09T08:33:10.644Z,101800.41
2024-05-09T08:35:44.944Z,101795.25
2024-05-09T08:38:12.450Z,101794.19
2024-05-09T08:40:39.396Z,101796.88
2024-05-09T08:43:11.804Z,101802.22
2024-05-09T08:45:43.780Z,101801.94
2024-05-09T08:48:12.798Z,101796.91
2024-05-09T08:50:43.225Z,101803.91
2024-05-09T08:53:10.285Z,101808.19
2024-05-09T08:55:40.616Z,101797.34
2024-05-09T08:58:15.698Z,101801.25
2024-05-09T09:00:43.607Z,101795.19
2024-05-09T09:03:12.439Z,101794.53
2024-05-09T09:05:40.980Z,101795.19
2024-05-09T09:08:08.737Z,101796.94
2024-05-09T09:10:39.749Z,101785.97
2024-05-09T09:13:09.900Z,101781.19
2024-05-09T09:15:47.093Z,101790.06
2024-05-09T09:18:15.277Z,101783.50
2024-05-09T09:20:42.308Z,101781.50
2024-05-09T09:23:09.143Z,101786.50
2024-05-09T09:25:38.988Z,101789.84
2024-05-09T09:28:07.170Z,101788.53
2024-05-09T09:30:37.460Z,101785.69
2024-05-09T09:33:06.115Z,101780.34
2024-05-09T09:39:34.127Z,101775.19
2024-05-09T09:42:01.346Z,101785.00
2024-05-09T09:44:28.744Z,101782.81
2024-05-09T09:46:57.461Z,101781.81
2024-05-09T09:49:51.773Z,101780.53
2024-05-09T09:52:19.663Z,101783.03
2024-05-09T09:58:42.156Z,101765.91
2024-05-09T10:01:09.046Z,101773.75
2024-05-09T10:03:36.155Z,101769.47
2024-05-09T10:06:04.381Z,101766.34
2024-05-09T10:08:31.126Z,101768.19
2024-05-09T10:10:58.099Z,101766.59
2024-05-09T10:13:32.751Z,101758.84
2024-05-09T10:16:06.536Z,101760.06
2024-05-09T10:18:37.105Z,101764.91
2024-05-09T10:21:14.876Z,101754.00
2024-05-09T10:23:43.765Z,101757.16
2024-05-09T10:26:12.857Z,101744.88
2024-05-09T10:28:43.164Z,101753.31
2024-05-09T10:31:13.532Z,101747.22
2024-05-09T10:33:48.958Z,101751.06
2024-05-09T10:36:26.162Z,101741.66
2024-05-09T10:38:53.913Z,101747.41
2024-05-09T10:41:21.465Z,101745.97
2024-05-09T10:43:48.480Z,101751.91
2024-05-09T10:46:15.809Z,101733.00
2024-05-09T10:48:45.821Z,101741.31
2024-05-09T10:51:13.561Z,101734.91
2024-05-09T10:53:44.370Z,101731.69
2024-05-09T10:56:11.606Z,101727.53
2024-05-09T10:58:38.453Z,101724.03
2024-05-09T11:01:06.956Z,101723.22
2024-05-09T11:03:34.634Z,101734.19
2024-05-09T11:06:01.941Z,101718.94
2024-05-09T11:08:32.591Z,101722.22
2024-05-09T11:11:02.314Z,101718.84
2024-05-09T11:13:36.503Z,101711.66
2024-05-09T11:16:04.023Z,101701.72
2024-05-09T11:18:35.202Z,101701.34
2024-05-09T11:21:11.768Z,101701.34
2024-05-09T11:23:41.362Z,101699.81
2024-05-09T11:26:09.267Z,101697.47
2024-05-09T11:28:36.179Z,101693.53
2024-05-09T11:31:11.937Z,101684.84
2024-05-09T11:33:47.933Z,101680.72
2024-05-09T11:36:15.361Z,101676.03
2024-05-09T11:38:42.355Z,101673.31
2024-05-09T11:41:09.285Z,101675.47
2024-05-09T11:43:36.091Z,101676.84
2024-05-09T11:46:03.810Z,101666.13
2024-05-09T11:48:34.205Z,101651.25
2024-05-09T11:51:01.205Z,101654.00
2024-05-09T11:53:30.939Z,101654.97
2024-05-09T11:55:57.691Z,101652.41
2024-05-09T11:58:29.071Z,101645.34
2024-05-09T12:00:57.337Z,101648.66
2024-05-09T12:03:26.501Z,101643.97
2024-05-09T12:05:56.358Z,101648.16
2024-05-09T12:08:23.280Z,101645.03
2024-05-09T12:10:50.399Z,101651.41
2024-05-09T12:13:17.456Z,101643.03
2024-05-09T12:15:44.283Z,101648.94
2024-05-09T12:18:11.275Z,101644.88
2024-05-09T12:20:39.880Z,101647.41
2024-05-09T12:23:09.504Z,101637.13
2024-05-09T12:25:37.307Z,101638.59
2024-05-09T12:28:04.531Z,101628.63
2024-05-09T12:30:36.818Z,101630.78
2024-05-09T12:33:11.586Z,101631.44
2024-05-09T12:35:39.215Z,101628.53
2024-05-09T12:38:05.962Z,101620.34
2024-05-09T12:40:38.429Z,101620.44
2024-05-09T12:43:09.983Z,101624.66
2024-05-09T12:45:38.191Z,101610.59
2024-05-09T12:48:09.609Z,101607.16
2024-05-09T12:50:39.619Z,101604.25
2024-05-09T12:53:06.450Z,101606.41
2024-05-09T12:55:41.290Z,101605.13
2024-05-09T13:00:57.257Z,101605.25
2024-05-09T13:03:24.370Z,101602.44
2024-05-09T13:05:51.790Z,101602.53
2024-05-09T13:08:19.080Z,101603.84
2024-05-09T13:10:46.153Z,101600.41
2024-05-09T13:13:13.483Z,101588.75
2024-05-09T13:15:40.742Z,101578.38
2024-05-09T13:18:09.956Z,101581.75
2024-05-09T13:20:37.162Z,101582.44
2024-05-09T13:23:04.964Z,101578.94
2024-05-09T13:25:34.452Z,101575.63
2024-05-09T13:28:01.588Z,101569.97
2024-05-09T13:30:37.365Z,101577.09
2024-05-09T13:33:07.480Z,101579.81
2024-05-09T13:35:35.658Z,101574.06
2024-05-09T13:38:03.184Z,101562.53
2024-05-09T13:40:34.279Z,101566.41
2024-05-09T13:43:11.995Z,101556.91
2024-05-09T13:49:16.922Z,101548.69
2024-05-09T13:51:44.059Z,101551.81
2024-05-09T13:54:10.897Z,101546.66
2024-05-09T13:56:38.211Z,101543.25
2024-05-09T13:59:05.089Z,101544.41
2024-05-09T14:01:31.922Z,101536.13
2024-05-09T14:03:58.952Z,101538.38
2024-05-09T14:06:26.000Z,101534.94
2024-05-09T14:08:52.838Z,101532.66
2024-05-09T14:11:19.763Z,101526.91
2024-05-09T14:13:46.567Z,101523.53
2024-05-09T14:16:13.728Z,101514.97
2024-05-09T14:18:41.120Z,101509.28
2024-05-09T14:21:08.058Z,101515.28
2024-05-09T14:23:34.805Z,101505.22
2024-05-09T14:26:01.565Z,101512.56
2024-05-09T14:28:29.017Z,101504.28
2024-05-09T14:31:01.334Z,101509.31
2024-05-09T14:33:30.754Z,101496.94
2024-05-09T14:35:57.663Z,101499.69
2024-05-09T14:38:24.799Z,101501.69
2024-05-09T14:40:51.735Z,101497.25
2024-05-09T14:43:19.080Z,101496.31
2024-05-09T14:45:46.493Z,101491.34
2024-05-09T14:48:15.110Z,101489.66
2024-05-09T14:50:45.904Z,101479.56
2024-05-09T14:53:13.684Z,101477.34
2024-05-09T14:55:42.756Z,101476.84
2024-05-09T14:58:12.651Z,101478.72
2024-05-09T15:00:46.070Z,101475.25
2024-05-09T15:03:16.993Z,101469.16
2024-05-09T15:05:45.043Z,101469.34
2024-05-09T15:08:12.022Z,101469.16
2024-05-09T15:10:39.227Z,101468.00
2024-05-09T15:13:08.710Z,101468.31
2024-05-09T15:15:39.127Z,101468.88
2024-05-09T15:18:06.365Z,101463.72
2024-05-09T15:20:36.313Z,101458.13
2024-05-09T15:23:04.935Z,101462.53
2024-05-09T15:25:32.923Z,101457.22
2024-05-09T15:27:59.923Z,101459.00
2024-05-09T15:30:31.072Z,101454.44
2024-05-09T15:33:01.004Z,101455.16
2024-05-09T15:35:28.138Z,101441.31
2024-05-09T15:37:55.463Z,101452.00
2024-05-09T15:40:35.543Z,101456.81
2024-05-09T15:43:07.278Z,101454.69
2024-05-09T15:45:34.707Z,101447.06
2024-05-09T15:48:02.577Z,101456.41
2024-05-09T15:50:36.948Z,101438.78
2024-05-09T15:53:08.238Z,101438.03
2024-05-09T15:55:36.115Z,101430.81
2024-05-09T15:58:04.045Z,101437.06
2024-05-09T16:00:38.884Z,101442.94
2024-05-09T16:03:15.254Z,101441.38
2024-05-09T16:05:43.918Z,101429.56
2024-05-09T16:08:15.848Z,101437.94
2024-05-09T16:10:46.061Z,101431.50
2024-05-09T16:13:14.039Z,101434.13
2024-05-09T16:15:43.419Z,101424.75
2024-05-09T16:18:10.980Z,101425.03
2024-05-09T16:20:41.126Z,101422.59
2024-05-09T16:23:10.273Z,101410.56
2024-05-09T16:25:37.601Z,101418.78
2024-05-09T16:28:08.335Z,101419.91
2024-05-09T16:30:37.280Z,101420.66
2024-05-09T16:33:05.132Z,101421.84
2024-05-09T16:35:32.688Z,101421.22
2024-05-09T16:38:01.467Z,101420.38
2024-05-09T16:40:36.292Z,101418.91
2024-05-09T16:43:06.993Z,101416.22
2024-05-09T16:45:34.326Z,101419.69
2024-05-09T16:48:01.552Z,101419.16
2024-05-09T16:50:32.297Z,101417.91
2024-05-09T16:53:02.533Z,101414.72
2024-05-09T16:55:29.449Z,101416.69
2024-05-09T16:57:56.876Z,101420.31
2024-05-09T17:00:35.137Z,101417.53
2024-05-09T17:03:08.031Z,101412.16
2024-05-09T17:05:35.693Z,101415.66
2024-05-09T17:08:03.122Z,101427.22
2024-05-09T17:10:33.614Z,101418.09
2024-05-09T17:13:03.426Z,101417.75
2024-05-09T17:15:32.835Z,101413.88
2024-05-09T17:18:02.025Z,101419.69
2024-05-09T17:20:33.615Z,101415.69
2024-05-09T17:23:04.565Z,101413.69
2024-05-09T17:25:31.949Z,101410.47
2024-05-09T17:28:05.654Z,101411.56
2024-05-09T17:30:36.738Z,101407.47
2024-05-09T17:33:06.242Z,101409.81
2024-05-09T17:35:33.199Z,101409.41
2024-05-09T17:38:01.914Z,101412.41
2024-05-09T17:40:33.641Z,101408.66
2024-05-09T17:43:03.938Z,101412.22
2024-05-09T17:45:31.611Z,101408.91
2024-05-09T17:47:59.223Z,101405.84
2024-05-09T17:50:33.430Z,101407.56
2024-05-09T17:53:03.084Z,101398.25
2024-05-09T17:55:30.399Z,101403.47
2024-05-09T17:57:57.710Z,101404.88
2024-05-09T18:00:34.320Z,101400.38
2024-05-09T18:03:06.317Z,101403.47
2024-05-09T18:05:34.303Z,101403.50
2024-05-09T18:08:01.468Z,101405.09
2024-05-09T18:10:35.502Z,101410.25
2024-05-09T18:13:06.356Z,101409.38
2024-05-09T18:15:33.780Z,101406.94
2024-05-09T18:18:01.044Z,101411.53
2024-05-09T18:20:37.912Z,101409.69
2024-05-09T18:23:10.598Z,101408.47
2024-05-09T18:25:37.549Z,101417.13
2024-05-09T18:28:04.932Z,101414.22
2024-05-09T18:30:59.843Z,101415.72
2024-05-09T18:33:26.946Z,101419.97
2024-05-09T18:36:35.405Z,101414.63
2024-05-09T18:39:03.245Z,101417.44
2024-05-09T18:41:30.834Z,101417.31
2024-05-09T18:44:00.458Z,101415.75
2024-05-09T18:46:27.683Z,101424.53
2024-05-09T18:48:55.178Z,101422.44
2024-05-09T18:51:22.220Z,101421.09
2024-05-09T18:53:52.471Z,101428.75
2024-05-09T18:56:26.546Z,101430.47
2024-05-09T18:58:53.339Z,101433.34
2024-05-09T19:01:20.261Z,101426.72
2024-05-09T19:03:48.650Z,101440.53
2024-05-09T19:06:15.545Z,101438.44
2024-05-09T19:08:44.760Z,101434.00
2024-05-09T19:11:11.525Z,101441.09
2024-05-09T19:13:38.409Z,101438.69
2024-05-09T19:16:08.136Z,101433.50
2024-05-09T19:18:39.439Z,101435.41
2024-05-09T19:21:06.316Z,101437.56
2024-05-09T19:23:38.028Z,101444.38
2024-05-09T19:26:11.592Z,101434.03
2024-05-09T19:28:44.962Z,101438.38
2024-05-09T19:31:11.820Z,101438.19
2024-05-09T19:33:38.689Z,101442.47
2024-05-09T19:36:06.143Z,101442.50
2024-05-09T19:38:35.641Z,101449.94
2024-05-09T19:41:46.389Z,101448.91
2024-05-09T19:44:13.157Z,101450.91
2024-05-09T19:46:39.949Z,101447.34
2024-05-09T19:49:07.026Z,101453.25
2024-05-09T19:51:33.936Z,101457.41
2024-05-09T19:54:00.952Z,101461.84
2024-05-09T19:56:27.812Z,101460.69
2024-05-09T19:59:00.133Z,101460.94
2024-05-09T20:01:27.039Z,101457.19
2024-05-09T20:03:59.143Z,101469.28
2024-05-09T20:06:30.451Z,101467.19
2024-05-09T20:08:58.480Z,101463.38
2024-05-09T20:11:28.277Z,101462.72
2024-05-09T20:13:57.045Z,101467.72
2024-05-09T20:16:26.208Z,101461.84
2024-05-09T20:18:53.275Z,101461.16
2024-05-09T20:21:27.512Z,101454.28
2024-05-09T20:23:54.621Z,101461.31
2024-05-09T20:26:30.857Z,101464.41
2024-05-09T20:28:58.753Z,101457.03
2024-05-09T20:31:25.734Z,101462.75
2024-05-09T20:33:59.949Z,101472.16
2024-05-09T20:36:26.737Z,101479.88
2024-05-09T20:38:53.491Z,101481.06
2024-05-09T20:41:20.283Z,101489.28
2024-05-09T20:43:47.065Z,101474.75
2024-05-09T20:46:17.018Z,101476.03
2024-05-09T20:48:44.086Z,101472.78
2024-05-09T20:51:10.906Z,101460.66
2024-05-09T20:53:40.086Z,101477.56
2024-05-09T20:56:07.191Z,101470.78
2024-05-09T20:58:34.808Z,101465.00
2024-05-09T21:01:04.929Z,101465.31
2024-05-09T21:03:32.783Z,101473.75
2024-05-09T21:05:59.691Z,101474.00
2024-05-09T21:08:27.106Z,101476.47
2024-05-09T21:10:53.988Z,101462.34
2024-05-09T21:13:20.990Z,101472.16
2024-05-09T21:15:48.846Z,101464.22
2024-05-09T21:18:15.807Z,101471.13
2024-05-09T21:20:42.670Z,101468.50
2024-05-09T21:23:09.428Z,101467.47
2024-05-09T21:25:36.209Z,101467.53
2024-05-09T21:28:04.120Z,101469.25
2024-05-09T21:30:41.078Z,101477.03
2024-05-09T21:33:11.683Z,101476.59
2024-05-09T21:35:40.574Z,101473.25
2024-05-09T21:38:07.917Z,101476.09
2024-05-09T21:44:12.949Z,101472.53
2024-05-09T21:46:39.820Z,101467.75
2024-05-09T21:49:06.712Z,101473.34
2024-05-09T21:51:35.841Z,101458.44
2024-05-09T21:54:02.644Z,101463.63
2024-05-09T21:56:29.390Z,101471.38
2024-05-09T21:58:56.196Z,101470.53
2024-05-09T22:01:22.926Z,101474.50
2024-05-09T22:03:50.775Z,101473.97
2024-05-09T22:06:20.664Z,101471.91
2024-05-09T22:08:47.651Z,101477.31
2024-05-09T22:11:19.644Z,101473.84
2024-05-09T22:13:46.605Z,101469.53
2024-05-09T22:16:13.434Z,101476.25
2024-05-09T22:18:40.756Z,101487.94
2024-05-09T22:21:07.619Z,101491.13
2024-05-09T22:23:34.601Z,101495.53
2024-05-09T22:26:01.344Z,101494.13
2024-05-09T22:28:28.195Z,101497.50
2024-05-09T22:30:57.923Z,101493.41
2024-05-09T22:33:24.931Z,101493.38
2024-05-09T22:35:51.763Z,101494.06
2024-05-09T22:38:26.338Z,101499.94
2024-05-09T22:40:53.284Z,101494.78
2024-05-09T22:43:21.625Z,101486.66
2024-05-09T22:45:50.564Z,101490.38
2024-05-09T22:48:17.856Z,101490.81
2024-05-09T22:50:46.644Z,101487.66
2024-05-09T22:53:13.359Z,101485.81
2024-05-09T22:55:40.209Z,101487.78
2024-05-09T22:58:07.100Z,101485.81
2024-05-09T23:00:36.962Z,101489.44
2024-05-09T23:03:06.652Z,101478.19
2024-05-09T23:05:33.679Z,101485.28
2024-05-09T23:08:03.610Z,101481.47
2024-05-09T23:10:36.042Z,101482.84
2024-05-09T23:13:40.774Z,101482.06
2024-05-09T23:16:10.209Z,101478.84
2024-05-09T23:18:37.132Z,101481.56
2024-05-09T23:21:04.095Z,101477.44
2024-05-09T23:23:30.845Z,101465.91
2024-05-09T23:25:57.569Z,101471.22
2024-05-09T23:28:24.458Z,101476.19
2024-05-09T23:30:51.649Z,101469.47
2024-05-09T23:33:18.639Z,101464.59
2024-05-09T23:35:47.746Z,101463.59
2024-05-09T23:38:14.544Z,101465.69
2024-05-09T23:40:43.837Z,101458.56
2024-05-09T23:43:11.620Z,101462.19
2024-05-09T23:45:42.136Z,101461.84
2024-05-09T23:48:09.615Z,101466.47
2024-05-09T23:50:41.983Z,101456.97
2024-05-09T23:53:17.123Z,101459.06
2024-05-09T23:55:44.682Z,101462.63
2024-05-09T23:58:11.889Z,101466.13
